sensor_id;sensor_type;location;lat;lon;timestamp;temperature;humidity
1626;DHT22;806;48.770;9.156;2023-07-13T00:01:50;22.30;1.00
1626;DHT22;806;48.770;9.156;2023-07-13T00:04:19;22.30;1.00
1626;DHT22;806;48.770;9.156;2023-07-13T00:06:47;22.20;1.00
1626;DHT22;806;48.770;9.156;2023-07-13T00:09:15;22.20;1.00
1626;DHT22;806;48.770;9.156;2023-07-13T00:11:43;22.20;1.00
1626;DHT22;806;48.770;9.156;2023-07-13T00:14:11;22.10;1.00
1626;DHT22;806;48.770;9.156;2023-07-13T00:16:39;21.90;1.00
1626;DHT22;806;48.770;9.156;2023-07-13T00:19:11;21.70;1.00
1626;DHT22;806;48.770;9.156;2023-07-13T00:21:37;21.60;1.00
1626;DHT22;806;48.770;9.156;2023-07-13T00:24:05;21.70;1.00
1626;DHT22;806;48.770;9.156;2023-07-13T00:26:32;21.90;1.00
1626;DHT22;806;48.770;9.156;2023-07-13T00:28:59;22.10;1.00
1626;DHT22;806;48.770;9.156;2023-07-13T00:31:26;22.00;1.00
1626;DHT22;806;48.770;9.156;2023-07-13T00:33:53;21.90;1.00
1626;DHT22;806;48.770;9.156;2023-07-13T00:36:22;21.90;1.00
1626;DHT22;806;48.770;9.156;2023-07-13T00:38:48;21.90;1.00
1626;DHT22;806;48.770;9.156;2023-07-13T00:41:15;21.70;1.00
1626;DHT22;806;48.770;9.156;2023-07-13T00:43:42;21.70;1.00
1626;DHT22;806;48.770;9.156;2023-07-13T00:46:24;21.70;1.00
1626;DHT22;806;48.770;9.156;2023-07-13T00:48:52;21.60;1.00
1626;DHT22;806;48.770;9.156;2023-07-13T00:51:25;21.40;1.00
1626;DHT22;806;48.770;9.156;2023-07-13T00:53:53;21.50;1.00
1626;DHT22;806;48.770;9.156;2023-07-13T00:56:21;21.50;1.00
1626;DHT22;806;48.770;9.156;2023-07-13T00:58:49;21.60;1.00
1626;DHT22;806;48.770;9.156;2023-07-13T01:01:16;21.70;1.00
1626;DHT22;806;48.770;9.156;2023-07-13T01:03:43;21.70;1.00
1626;DHT22;806;48.770;9.156;2023-07-13T01:06:11;21.60;1.00
1626;DHT22;806;48.770;9.156;2023-07-13T01:08:39;21.50;1.00
1626;DHT22;806;48.770;9.156;2023-07-13T01:11:06;21.50;1.00
1626;DHT22;806;48.770;9.156;2023-07-13T01:13:34;21.40;1.00
1626;DHT22;806;48.770;9.156;2023-07-13T01:16:05;21.30;1.00
1626;DHT22;806;48.770;9.156;2023-07-13T01:18:39;21.30;1.00
1626;DHT22;806;48.770;9.156;2023-07-13T01:21:07;21.20;1.00
1626;DHT22;806;48.770;9.156;2023-07-13T01:23:34;21.10;1.00
1626;DHT22;806;48.770;9.156;2023-07-13T01:26:01;21.00;1.00
1626;DHT22;806;48.770;9.156;2023-07-13T01:28:28;20.90;1.00
1626;DHT22;806;48.770;9.156;2023-07-13T01:30:57;20.90;1.00
1626;DHT22;806;48.770;9.156;2023-07-13T01:33:25;20.80;1.00
1626;DHT22;806;48.770;9.156;2023-07-13T01:35:52;20.70;1.00
1626;DHT22;806;48.770;9.156;2023-07-13T01:38:23;20.70;1.00
1626;DHT22;806;48.770;9.156;2023-07-13T01:40:50;20.60;1.00
1626;DHT22;806;48.770;9.156;2023-07-13T01:43:17;20.50;1.00
1626;DHT22;806;48.770;9.156;2023-07-13T01:45:45;20.50;1.00
1626;DHT22;806;48.770;9.156;2023-07-13T01:48:13;20.40;1.00
1626;DHT22;806;48.770;9.156;2023-07-13T01:50:40;20.30;1.00
1626;DHT22;806;48.770;9.156;2023-07-13T01:53:07;20.30;1.00
1626;DHT22;806;48.770;9.156;2023-07-13T01:55:36;20.20;1.00
1626;DHT22;806;48.770;9.156;2023-07-13T01:58:03;20.30;1.00
1626;DHT22;806;48.770;9.156;2023-07-13T02:00:30;20.40;1.00
1626;DHT22;806;48.770;9.156;2023-07-13T02:02:58;20.40;1.00
1626;DHT22;806;48.770;9.156;2023-07-13T02:05:25;20.40;1.00
1626;DHT22;806;48.770;9.156;2023-07-13T02:07:52;20.40;1.00
1626;DHT22;806;48.770;9.156;2023-07-13T02:10:19;20.40;1.00
1626;DHT22;806;48.770;9.156;2023-07-13T02:12:48;20.30;1.00
1626;DHT22;806;48.770;9.156;2023-07-13T02:15:16;20.20;1.00
1626;DHT22;806;48.770;9.156;2023-07-13T02:17:43;20.10;1.00
1626;DHT22;806;48.770;9.156;2023-07-13T02:20:10;20.10;1.00
1626;DHT22;806;48.770;9.156;2023-07-13T02:22:38;20.00;1.00
1626;DHT22;806;48.770;9.156;2023-07-13T02:25:05;20.00;1.00
1626;DHT22;806;48.770;9.156;2023-07-13T02:27:32;20.00;1.00
1626;DHT22;806;48.770;9.156;2023-07-13T02:30:01;19.90;1.00
1626;DHT22;806;48.770;9.156;2023-07-13T02:32:28;19.90;1.00
1626;DHT22;806;48.770;9.156;2023-07-13T02:34:55;19.80;1.00
1626;DHT22;806;48.770;9.156;2023-07-13T02:37:22;19.80;1.00
1626;DHT22;806;48.770;9.156;2023-07-13T02:39:49;19.80;1.00
1626;DHT22;806;48.770;9.156;2023-07-13T02:42:16;19.70;1.00
1626;DHT22;806;48.770;9.156;2023-07-13T02:44:43;19.70;1.00
1626;DHT22;806;48.770;9.156;2023-07-13T02:47:12;19.60;1.00
1626;DHT22;806;48.770;9.156;2023-07-13T02:49:39;19.50;1.00
1626;DHT22;806;48.770;9.156;2023-07-13T02:52:06;19.40;1.00
1626;DHT22;806;48.770;9.156;2023-07-13T02:54:33;19.40;1.00
1626;DHT22;806;48.770;9.156;2023-07-13T02:57:00;19.30;1.00
1626;DHT22;806;48.770;9.156;2023-07-13T02:59:27;19.30;42.50
1626;DHT22;806;48.770;9.156;2023-07-13T03:01:54;19.40;43.60
1626;DHT22;806;48.770;9.156;2023-07-13T03:04:23;19.50;17.60
1626;DHT22;806;48.770;9.156;2023-07-13T03:06:50;19.70;4.90
1626;DHT22;806;48.770;9.156;2023-07-13T03:09:17;19.80;2.10
1626;DHT22;806;48.770;9.156;2023-07-13T03:11:44;19.80;1.00
1626;DHT22;806;48.770;9.156;2023-07-13T03:14:11;19.80;1.00
1626;DHT22;806;48.770;9.156;2023-07-13T03:16:38;19.80;1.00
1626;DHT22;806;48.770;9.156;2023-07-13T03:19:05;20.00;1.00
1626;DHT22;806;48.770;9.156;2023-07-13T03:21:33;20.10;1.00
1626;DHT22;806;48.770;9.156;2023-07-13T03:24:00;20.20;1.00
1626;DHT22;806;48.770;9.156;2023-07-13T03:26:27;20.20;1.00
1626;DHT22;806;48.770;9.156;2023-07-13T03:28:55;20.20;1.00
1626;DHT22;806;48.770;9.156;2023-07-13T03:31:24;20.10;1.00
1626;DHT22;806;48.770;9.156;2023-07-13T03:33:52;20.00;1.00
1626;DHT22;806;48.770;9.156;2023-07-13T03:36:21;20.10;1.00
1626;DHT22;806;48.770;9.156;2023-07-13T03:38:51;20.20;1.00
1626;DHT22;806;48.770;9.156;2023-07-13T03:41:19;20.10;1.00
1626;DHT22;806;48.770;9.156;2023-07-13T03:43:46;20.10;1.00
1626;DHT22;806;48.770;9.156;2023-07-13T03:46:14;20.00;1.00
1626;DHT22;806;48.770;9.156;2023-07-13T03:48:42;20.00;1.00
1626;DHT22;806;48.770;9.156;2023-07-13T03:51:10;19.90;1.00
1626;DHT22;806;48.770;9.156;2023-07-13T03:53:40;19.90;1.00
1626;DHT22;806;48.770;9.156;2023-07-13T03:56:09;20.00;1.00
1626;DHT22;806;48.770;9.156;2023-07-13T03:58:38;20.00;1.00
1626;DHT22;806;48.770;9.156;2023-07-13T04:01:07;20.00;1.00
1626;DHT22;806;48.770;9.156;2023-07-13T04:03:35;20.00;1.00
1626;DHT22;806;48.770;9.156;2023-07-13T04:06:04;20.00;1.00
1626;DHT22;806;48.770;9.156;2023-07-13T04:08:33;20.00;1.00
1626;DHT22;806;48.770;9.156;2023-07-13T04:11:03;20.00;1.00
1626;DHT22;806;48.770;9.156;2023-07-13T04:13:31;19.90;1.00
1626;DHT22;806;48.770;9.156;2023-07-13T04:15:58;19.80;1.00
1626;DHT22;806;48.770;9.156;2023-07-13T04:18:25;19.80;1.00
1626;DHT22;806;48.770;9.156;2023-07-13T04:20:52;19.90;1.00
1626;DHT22;806;48.770;9.156;2023-07-13T04:23:19;20.00;1.00
1626;DHT22;806;48.770;9.156;2023-07-13T04:25:47;20.20;1.00
1626;DHT22;806;48.770;9.156;2023-07-13T04:28:15;20.30;1.00
1626;DHT22;806;48.770;9.156;2023-07-13T04:30:44;20.50;1.00
1626;DHT22;806;48.770;9.156;2023-07-13T04:33:11;20.60;1.00
1626;DHT22;806;48.770;9.156;2023-07-13T04:35:38;20.70;1.00
1626;DHT22;806;48.770;9.156;2023-07-13T04:38:05;20.50;1.00
1626;DHT22;806;48.770;9.156;2023-07-13T04:40:32;20.50;1.00
1626;DHT22;806;48.770;9.156;2023-07-13T04:42:59;20.40;1.00
1626;DHT22;806;48.770;9.156;2023-07-13T04:45:26;20.30;1.00
1626;DHT22;806;48.770;9.156;2023-07-13T04:47:55;20.30;1.00
1626;DHT22;806;48.770;9.156;2023-07-13T04:50:21;20.10;1.00
1626;DHT22;806;48.770;9.156;2023-07-13T04:52:49;19.90;1.00
1626;DHT22;806;48.770;9.156;2023-07-13T04:55:16;19.80;1.00
1626;DHT22;806;48.770;9.156;2023-07-13T04:57:43;19.90;1.00
1626;DHT22;806;48.770;9.156;2023-07-13T05:00:12;20.00;1.00
1626;DHT22;806;48.770;9.156;2023-07-13T05:02:43;20.00;1.00
1626;DHT22;806;48.770;9.156;2023-07-13T05:05:11;20.00;1.00
1626;DHT22;806;48.770;9.156;2023-07-13T05:07:38;20.10;1.00
1626;DHT22;806;48.770;9.156;2023-07-13T05:10:06;20.00;1.00
1626;DHT22;806;48.770;9.156;2023-07-13T05:12:33;20.00;1.00
1626;DHT22;806;48.770;9.156;2023-07-13T05:15:01;20.10;1.00
1626;DHT22;806;48.770;9.156;2023-07-13T05:17:28;20.30;1.00
1626;DHT22;806;48.770;9.156;2023-07-13T05:19:55;20.40;1.00
1626;DHT22;806;48.770;9.156;2023-07-13T05:22:23;20.60;1.00
1626;DHT22;806;48.770;9.156;2023-07-13T05:24:50;20.40;1.00
1626;DHT22;806;48.770;9.156;2023-07-13T05:27:17;20.00;1.00
1626;DHT22;806;48.770;9.156;2023-07-13T05:29:44;20.00;1.00
1626;DHT22;806;48.770;9.156;2023-07-13T05:32:11;20.00;1.00
1626;DHT22;806;48.770;9.156;2023-07-13T05:34:38;20.20;1.00
1626;DHT22;806;48.770;9.156;2023-07-13T05:37:05;20.50;1.00
1626;DHT22;806;48.770;9.156;2023-07-13T05:39:34;20.60;1.00
1626;DHT22;806;48.770;9.156;2023-07-13T05:42:01;20.80;1.00
1626;DHT22;806;48.770;9.156;2023-07-13T05:44:29;20.80;1.00
1626;DHT22;806;48.770;9.156;2023-07-13T05:46:56;20.90;1.00
1626;DHT22;806;48.770;9.156;2023-07-13T05:49:23;20.90;1.00
1626;DHT22;806;48.770;9.156;2023-07-13T05:51:50;20.70;1.00
1626;DHT22;806;48.770;9.156;2023-07-13T05:54:17;20.50;1.00
1626;DHT22;806;48.770;9.156;2023-07-13T05:56:45;20.30;1.00
1626;DHT22;806;48.770;9.156;2023-07-13T05:59:13;20.30;1.00
1626;DHT22;806;48.770;9.156;2023-07-13T06:01:41;20.10;1.00
1626;DHT22;806;48.770;9.156;2023-07-13T06:04:08;20.00;1.00
1626;DHT22;806;48.770;9.156;2023-07-13T06:06:35;20.10;1.00
1626;DHT22;806;48.770;9.156;2023-07-13T06:09:02;20.50;1.00
1626;DHT22;806;48.770;9.156;2023-07-13T06:11:29;20.90;1.00
1626;DHT22;806;48.770;9.156;2023-07-13T06:13:58;21.10;1.00
1626;DHT22;806;48.770;9.156;2023-07-13T06:16:25;21.40;1.00
1626;DHT22;806;48.770;9.156;2023-07-13T06:18:52;21.40;1.00
1626;DHT22;806;48.770;9.156;2023-07-13T06:21:21;21.40;1.00
1626;DHT22;806;48.770;9.156;2023-07-13T06:23:50;21.40;1.00
1626;DHT22;806;48.770;9.156;2023-07-13T06:26:18;21.20;1.00
1626;DHT22;806;48.770;9.156;2023-07-13T06:28:45;21.10;1.00
1626;DHT22;806;48.770;9.156;2023-07-13T06:31:15;21.30;1.00
1626;DHT22;806;48.770;9.156;2023-07-13T06:33:42;21.30;1.00
1626;DHT22;806;48.770;9.156;2023-07-13T06:36:10;21.20;1.00
1626;DHT22;806;48.770;9.156;2023-07-13T06:38:37;21.50;1.00
1626;DHT22;806;48.770;9.156;2023-07-13T06:41:07;21.70;1.00
1626;DHT22;806;48.770;9.156;2023-07-13T06:43:34;21.90;1.00
1626;DHT22;806;48.770;9.156;2023-07-13T06:46:01;22.10;1.00
1626;DHT22;806;48.770;9.156;2023-07-13T06:48:30;22.10;1.00
1626;DHT22;806;48.770;9.156;2023-07-13T06:50:57;22.00;1.00
1626;DHT22;806;48.770;9.156;2023-07-13T06:53:24;22.10;1.00
1626;DHT22;806;48.770;9.156;2023-07-13T06:55:51;22.30;1.00
1626;DHT22;806;48.770;9.156;2023-07-13T06:58:18;22.20;1.00
1626;DHT22;806;48.770;9.156;2023-07-13T07:00:46;22.30;1.00
1626;DHT22;806;48.770;9.156;2023-07-13T07:03:13;22.40;1.00
1626;DHT22;806;48.770;9.156;2023-07-13T07:05:42;22.50;1.00
1626;DHT22;806;48.770;9.156;2023-07-13T07:08:10;22.20;1.00
1626;DHT22;806;48.770;9.156;2023-07-13T07:10:37;21.90;1.00
1626;DHT22;806;48.770;9.156;2023-07-13T07:13:04;21.80;1.00
1626;DHT22;806;48.770;9.156;2023-07-13T07:15:31;21.70;1.00
1626;DHT22;806;48.770;9.156;2023-07-13T07:17:58;22.00;1.00
1626;DHT22;806;48.770;9.156;2023-07-13T07:20:25;22.10;1.00
1626;DHT22;806;48.770;9.156;2023-07-13T07:22:53;22.40;1.00
1626;DHT22;806;48.770;9.156;2023-07-13T07:25:20;22.60;1.00
1626;DHT22;806;48.770;9.156;2023-07-13T07:27:47;22.80;1.00
1626;DHT22;806;48.770;9.156;2023-07-13T07:30:14;23.00;1.00
1626;DHT22;806;48.770;9.156;2023-07-13T07:32:41;22.60;1.00
1626;DHT22;806;48.770;9.156;2023-07-13T07:35:08;22.00;1.00
1626;DHT22;806;48.770;9.156;2023-07-13T07:37:36;21.80;1.00
1626;DHT22;806;48.770;9.156;2023-07-13T07:40:05;22.10;1.00
1626;DHT22;806;48.770;9.156;2023-07-13T07:42:33;22.40;1.00
1626;DHT22;806;48.770;9.156;2023-07-13T07:45:00;22.80;1.00
1626;DHT22;806;48.770;9.156;2023-07-13T07:47:28;23.00;1.00
1626;DHT22;806;48.770;9.156;2023-07-13T07:49:55;23.20;1.00
1626;DHT22;806;48.770;9.156;2023-07-13T07:52:22;23.20;1.00
1626;DHT22;806;48.770;9.156;2023-07-13T07:54:49;23.40;1.00
1626;DHT22;806;48.770;9.156;2023-07-13T07:57:17;23.30;1.00
1626;DHT22;806;48.770;9.156;2023-07-13T07:59:44;23.10;1.00
1626;DHT22;806;48.770;9.156;2023-07-13T08:02:11;23.10;1.00
1626;DHT22;806;48.770;9.156;2023-07-13T08:04:38;23.10;1.00
1626;DHT22;806;48.770;9.156;2023-07-13T08:07:05;22.90;1.00
1626;DHT22;806;48.770;9.156;2023-07-13T08:09:32;22.90;1.00
1626;DHT22;806;48.770;9.156;2023-07-13T08:12:00;23.10;1.00
1626;DHT22;806;48.770;9.156;2023-07-13T08:14:28;23.30;1.00
1626;DHT22;806;48.770;9.156;2023-07-13T08:16:55;23.40;1.00
1626;DHT22;806;48.770;9.156;2023-07-13T08:19:22;23.60;1.00
1626;DHT22;806;48.770;9.156;2023-07-13T08:21:49;23.60;1.00
1626;DHT22;806;48.770;9.156;2023-07-13T08:24:16;23.70;1.00
1626;DHT22;806;48.770;9.156;2023-07-13T08:26:44;23.80;1.00
1626;DHT22;806;48.770;9.156;2023-07-13T08:29:12;23.80;1.00
1626;DHT22;806;48.770;9.156;2023-07-13T08:31:40;23.90;1.00
1626;DHT22;806;48.770;9.156;2023-07-13T08:34:07;23.90;1.00
1626;DHT22;806;48.770;9.156;2023-07-13T08:36:34;23.70;1.00
1626;DHT22;806;48.770;9.156;2023-07-13T08:39:01;23.70;1.00
1626;DHT22;806;48.770;9.156;2023-07-13T08:41:28;23.80;1.00
1626;DHT22;806;48.770;9.156;2023-07-13T08:43:58;23.90;1.00
1626;DHT22;806;48.770;9.156;2023-07-13T08:46:30;24.20;1.00
1626;DHT22;806;48.770;9.156;2023-07-13T08:49:02;24.40;1.00
1626;DHT22;806;48.770;9.156;2023-07-13T08:51:37;24.50;1.00
1626;DHT22;806;48.770;9.156;2023-07-13T08:54:11;24.50;1.00
1626;DHT22;806;48.770;9.156;2023-07-13T08:56:39;24.20;1.00
1626;DHT22;806;48.770;9.156;2023-07-13T08:59:11;24.20;1.00
1626;DHT22;806;48.770;9.156;2023-07-13T09:04:34;24.50;1.00
1626;DHT22;806;48.770;9.156;2023-07-13T09:07:07;24.80;1.00
1626;DHT22;806;48.770;9.156;2023-07-13T09:09:54;24.50;1.00
1626;DHT22;806;48.770;9.156;2023-07-13T09:12:27;24.20;1.00
1626;DHT22;806;48.770;9.156;2023-07-13T09:14:59;24.10;1.00
1626;DHT22;806;48.770;9.156;2023-07-13T09:17:33;24.30;1.00
1626;DHT22;806;48.770;9.156;2023-07-13T09:20:04;24.60;1.00
1626;DHT22;806;48.770;9.156;2023-07-13T09:22:37;24.90;1.00
1626;DHT22;806;48.770;9.156;2023-07-13T09:25:11;25.10;1.00
1626;DHT22;806;48.770;9.156;2023-07-13T09:27:40;25.40;1.00
1626;DHT22;806;48.770;9.156;2023-07-13T09:30:23;25.50;1.00
1626;DHT22;806;48.770;9.156;2023-07-13T09:32:52;25.40;1.00
1626;DHT22;806;48.770;9.156;2023-07-13T09:35:25;25.40;1.00
1626;DHT22;806;48.770;9.156;2023-07-13T09:37:57;25.50;1.00
1626;DHT22;806;48.770;9.156;2023-07-13T09:40:32;25.30;1.00
1626;DHT22;806;48.770;9.156;2023-07-13T09:43:01;25.00;1.00
1626;DHT22;806;48.770;9.156;2023-07-13T09:45:33;25.00;1.00
1626;DHT22;806;48.770;9.156;2023-07-13T09:48:04;25.10;1.00
1626;DHT22;806;48.770;9.156;2023-07-13T09:50:34;25.20;1.00
1626;DHT22;806;48.770;9.156;2023-07-13T09:53:01;25.40;1.00
1626;DHT22;806;48.770;9.156;2023-07-13T09:55:31;25.60;1.00
1626;DHT22;806;48.770;9.156;2023-07-13T09:58:04;25.40;1.00
1626;DHT22;806;48.770;9.156;2023-07-13T10:00:32;25.30;1.00
1626;DHT22;806;48.770;9.156;2023-07-13T10:03:01;25.30;1.00
1626;DHT22;806;48.770;9.156;2023-07-13T10:05:39;25.40;1.00
1626;DHT22;806;48.770;9.156;2023-07-13T10:08:16;25.60;1.00
1626;DHT22;806;48.770;9.156;2023-07-13T10:10:44;25.40;1.00
1626;DHT22;806;48.770;9.156;2023-07-13T10:13:29;25.50;1.00
1626;DHT22;806;48.770;9.156;2023-07-13T10:15:57;25.50;1.00
1626;DHT22;806;48.770;9.156;2023-07-13T10:18:26;25.60;1.00
1626;DHT22;806;48.770;9.156;2023-07-13T10:21:08;25.70;1.00
1626;DHT22;806;48.770;9.156;2023-07-13T10:23:36;25.60;1.00
1626;DHT22;806;48.770;9.156;2023-07-13T10:26:05;25.90;1.00
1626;DHT22;806;48.770;9.156;2023-07-13T10:28:37;26.00;1.00
1626;DHT22;806;48.770;9.156;2023-07-13T10:31:09;26.20;1.00
1626;DHT22;806;48.770;9.156;2023-07-13T10:33:38;26.50;1.00
1626;DHT22;806;48.770;9.156;2023-07-13T10:36:28;26.90;1.00
1626;DHT22;806;48.770;9.156;2023-07-13T10:38:58;27.20;1.00
1626;DHT22;806;48.770;9.156;2023-07-13T10:41:28;27.50;1.00
1626;DHT22;806;48.770;9.156;2023-07-13T10:43:57;27.60;1.00
1626;DHT22;806;48.770;9.156;2023-07-13T10:46:26;27.50;1.00
1626;DHT22;806;48.770;9.156;2023-07-13T10:48:57;27.50;1.00
1626;DHT22;806;48.770;9.156;2023-07-13T10:51:27;27.00;1.00
1626;DHT22;806;48.770;9.156;2023-07-13T10:54:11;26.50;1.00
1626;DHT22;806;48.770;9.156;2023-07-13T10:56:39;26.80;1.00
1626;DHT22;806;48.770;9.156;2023-07-13T10:59:11;26.90;1.00
1626;DHT22;806;48.770;9.156;2023-07-13T11:01:49;26.90;1.00
1626;DHT22;806;48.770;9.156;2023-07-13T11:04:19;27.40;1.00
1626;DHT22;806;48.770;9.156;2023-07-13T11:06:52;27.40;1.00
1626;DHT22;806;48.770;9.156;2023-07-13T11:09:34;27.60;1.00
1626;DHT22;806;48.770;9.156;2023-07-13T11:12:06;27.20;1.00
1626;DHT22;806;48.770;9.156;2023-07-13T11:14:36;27.20;1.00
1626;DHT22;806;48.770;9.156;2023-07-13T11:17:24;27.40;1.00
1626;DHT22;806;48.770;9.156;2023-07-13T11:19:52;27.00;1.00
1626;DHT22;806;48.770;9.156;2023-07-13T11:22:26;27.00;1.00
1626;DHT22;806;48.770;9.156;2023-07-13T11:25:26;27.20;1.00
1626;DHT22;806;48.770;9.156;2023-07-13T11:28:06;27.40;1.00
1626;DHT22;806;48.770;9.156;2023-07-13T11:30:40;27.40;1.00
1626;DHT22;806;48.770;9.156;2023-07-13T11:33:16;27.40;1.00
1626;DHT22;806;48.770;9.156;2023-07-13T11:35:57;27.60;1.00
1626;DHT22;806;48.770;9.156;2023-07-13T11:38:33;28.30;1.00
1626;DHT22;806;48.770;9.156;2023-07-13T11:41:05;28.30;1.00
1626;DHT22;806;48.770;9.156;2023-07-13T11:43:33;28.80;1.00
1626;DHT22;806;48.770;9.156;2023-07-13T11:46:13;29.50;1.00
1626;DHT22;806;48.770;9.156;2023-07-13T11:48:41;29.70;1.00
1626;DHT22;806;48.770;9.156;2023-07-13T11:51:17;29.30;1.00
1626;DHT22;806;48.770;9.156;2023-07-13T11:53:50;28.80;1.00
1626;DHT22;806;48.770;9.156;2023-07-13T11:56:17;28.90;1.00
1626;DHT22;806;48.770;9.156;2023-07-13T11:58:48;28.90;1.00
1626;DHT22;806;48.770;9.156;2023-07-13T12:01:20;28.90;1.00
1626;DHT22;806;48.770;9.156;2023-07-13T12:03:48;28.50;1.00
1626;DHT22;806;48.770;9.156;2023-07-13T12:06:28;28.20;1.00
1626;DHT22;806;48.770;9.156;2023-07-13T12:09:01;28.80;1.00
1626;DHT22;806;48.770;9.156;2023-07-13T12:11:29;29.20;1.00
1626;DHT22;806;48.770;9.156;2023-07-13T12:13:56;29.20;1.00
1626;DHT22;806;48.770;9.156;2023-07-13T12:16:28;29.10;1.00
1626;DHT22;806;48.770;9.156;2023-07-13T12:18:56;29.40;1.00
1626;DHT22;806;48.770;9.156;2023-07-13T12:21:29;29.90;1.00
1626;DHT22;806;48.770;9.156;2023-07-13T12:23:57;30.30;1.00
1626;DHT22;806;48.770;9.156;2023-07-13T12:26:26;30.30;1.00
1626;DHT22;806;48.770;9.156;2023-07-13T12:28:54;30.30;1.00
1626;DHT22;806;48.770;9.156;2023-07-13T12:31:31;29.60;1.00
1626;DHT22;806;48.770;9.156;2023-07-13T12:34:00;29.50;1.00
1626;DHT22;806;48.770;9.156;2023-07-13T12:36:31;29.40;1.00
1626;DHT22;806;48.770;9.156;2023-07-13T12:39:03;29.00;1.00
1626;DHT22;806;48.770;9.156;2023-07-13T12:41:32;29.20;1.00
1626;DHT22;806;48.770;9.156;2023-07-13T12:44:00;29.30;1.00
1626;DHT22;806;48.770;9.156;2023-07-13T12:46:27;29.50;1.00
1626;DHT22;806;48.770;9.156;2023-07-13T12:48:57;29.50;1.00
1626;DHT22;806;48.770;9.156;2023-07-13T12:51:26;29.70;1.00
1626;DHT22;806;48.770;9.156;2023-07-13T12:53:57;30.00;1.00
1626;DHT22;806;48.770;9.156;2023-07-13T12:56:27;30.20;1.00
1626;DHT22;806;48.770;9.156;2023-07-13T12:59:01;30.00;1.00
1626;DHT22;806;48.770;9.156;2023-07-13T13:01:34;30.00;1.00
1626;DHT22;806;48.770;9.156;2023-07-13T13:04:03;30.20;1.00
1626;DHT22;806;48.770;9.156;2023-07-13T13:06:32;30.10;1.00
1626;DHT22;806;48.770;9.156;2023-07-13T13:09:01;30.00;1.00
1626;DHT22;806;48.770;9.156;2023-07-13T13:11:31;29.80;1.00
1626;DHT22;806;48.770;9.156;2023-07-13T13:13:59;30.00;1.00
1626;DHT22;806;48.770;9.156;2023-07-13T13:16:31;29.90;1.00
1626;DHT22;806;48.770;9.156;2023-07-13T13:19:02;29.60;1.00
1626;DHT22;806;48.770;9.156;2023-07-13T13:21:31;29.70;1.00
1626;DHT22;806;48.770;9.156;2023-07-13T13:23:58;29.50;1.00
1626;DHT22;806;48.770;9.156;2023-07-13T13:26:25;29.90;1.00
1626;DHT22;806;48.770;9.156;2023-07-13T13:28:52;30.30;1.00
1626;DHT22;806;48.770;9.156;2023-07-13T13:31:20;30.80;1.00
1626;DHT22;806;48.770;9.156;2023-07-13T13:33:47;30.90;1.00
1626;DHT22;806;48.770;9.156;2023-07-13T13:36:15;30.60;1.00
1626;DHT22;806;48.770;9.156;2023-07-13T13:38:43;30.10;1.00
1626;DHT22;806;48.770;9.156;2023-07-13T13:41:10;29.50;1.00
1626;DHT22;806;48.770;9.156;2023-07-13T13:43:39;29.30;1.00
1626;DHT22;806;48.770;9.156;2023-07-13T13:46:14;29.60;1.00
1626;DHT22;806;48.770;9.156;2023-07-13T13:48:43;30.00;1.00
1626;DHT22;806;48.770;9.156;2023-07-13T13:51:16;30.50;1.00
1626;DHT22;806;48.770;9.156;2023-07-13T13:53:43;30.30;1.00
1626;DHT22;806;48.770;9.156;2023-07-13T13:56:11;29.90;1.00
1626;DHT22;806;48.770;9.156;2023-07-13T13:58:38;29.70;1.00
1626;DHT22;806;48.770;9.156;2023-07-13T14:01:12;29.70;1.00
1626;DHT22;806;48.770;9.156;2023-07-13T14:03:40;30.00;1.00
1626;DHT22;806;48.770;9.156;2023-07-13T14:06:11;30.30;1.00
1626;DHT22;806;48.770;9.156;2023-07-13T14:08:39;30.30;1.00
1626;DHT22;806;48.770;9.156;2023-07-13T14:11:08;30.10;1.00
1626;DHT22;806;48.770;9.156;2023-07-13T14:13:39;29.80;1.00
1626;DHT22;806;48.770;9.156;2023-07-13T14:16:11;29.60;1.00
1626;DHT22;806;48.770;9.156;2023-07-13T14:18:39;29.90;1.00
1626;DHT22;806;48.770;9.156;2023-07-13T14:21:12;29.70;1.00
1626;DHT22;806;48.770;9.156;2023-07-13T14:23:40;29.20;1.00
1626;DHT22;806;48.770;9.156;2023-07-13T14:26:12;28.70;1.00
1626;DHT22;806;48.770;9.156;2023-07-13T14:28:42;28.90;1.00
1626;DHT22;806;48.770;9.156;2023-07-13T14:31:10;29.40;1.00
1626;DHT22;806;48.770;9.156;2023-07-13T14:33:37;29.90;1.00
1626;DHT22;806;48.770;9.156;2023-07-13T14:36:27;30.30;1.00
1626;DHT22;806;48.770;9.156;2023-07-13T14:38:54;29.90;1.00
1626;DHT22;806;48.770;9.156;2023-07-13T14:41:22;30.00;1.00
1626;DHT22;806;48.770;9.156;2023-07-13T14:43:49;30.00;1.00
1626;DHT22;806;48.770;9.156;2023-07-13T14:46:27;29.60;1.00
1626;DHT22;806;48.770;9.156;2023-07-13T14:49:00;29.50;1.00
1626;DHT22;806;48.770;9.156;2023-07-13T14:51:31;29.10;1.00
1626;DHT22;806;48.770;9.156;2023-07-13T14:54:00;29.30;1.00
1626;DHT22;806;48.770;9.156;2023-07-13T14:56:27;29.30;1.00
1626;DHT22;806;48.770;9.156;2023-07-13T14:58:54;29.00;1.00
1626;DHT22;806;48.770;9.156;2023-07-13T15:01:21;28.70;1.00
1626;DHT22;806;48.770;9.156;2023-07-13T15:03:51;28.10;1.00
1626;DHT22;806;48.770;9.156;2023-07-13T15:06:19;28.00;1.00
1626;DHT22;806;48.770;9.156;2023-07-13T15:08:47;27.90;1.00
1626;DHT22;806;48.770;9.156;2023-07-13T15:11:15;28.10;1.00
1626;DHT22;806;48.770;9.156;2023-07-13T15:13:42;27.90;1.00
1626;DHT22;806;48.770;9.156;2023-07-13T15:16:16;28.00;1.00
1626;DHT22;806;48.770;9.156;2023-07-13T15:18:45;28.20;1.00
1626;DHT22;806;48.770;9.156;2023-07-13T15:21:16;28.10;1.00
1626;DHT22;806;48.770;9.156;2023-07-13T15:23:47;28.30;1.00
1626;DHT22;806;48.770;9.156;2023-07-13T15:26:14;28.20;1.00
1626;DHT22;806;48.770;9.156;2023-07-13T15:28:42;28.10;1.00
1626;DHT22;806;48.770;9.156;2023-07-13T15:31:19;28.00;1.00
1626;DHT22;806;48.770;9.156;2023-07-13T15:33:48;28.00;1.00
1626;DHT22;806;48.770;9.156;2023-07-13T15:36:16;27.70;1.00
1626;DHT22;806;48.770;9.156;2023-07-13T15:38:44;27.50;1.00
1626;DHT22;806;48.770;9.156;2023-07-13T15:41:17;27.50;1.00
1626;DHT22;806;48.770;9.156;2023-07-13T15:43:45;27.50;1.00
1626;DHT22;806;48.770;9.156;2023-07-13T15:46:13;27.60;1.00
1626;DHT22;806;48.770;9.156;2023-07-13T15:48:40;27.50;1.00
1626;DHT22;806;48.770;9.156;2023-07-13T15:51:12;27.50;1.00
1626;DHT22;806;48.770;9.156;2023-07-13T15:53:41;27.50;1.00
1626;DHT22;806;48.770;9.156;2023-07-13T15:56:18;27.60;1.00
1626;DHT22;806;48.770;9.156;2023-07-13T15:58:46;27.50;1.00
1626;DHT22;806;48.770;9.156;2023-07-13T16:01:13;27.60;1.00
1626;DHT22;806;48.770;9.156;2023-07-13T16:03:40;27.50;1.00
1626;DHT22;806;48.770;9.156;2023-07-13T16:06:13;27.40;1.00
1626;DHT22;806;48.770;9.156;2023-07-13T16:08:41;27.30;1.00
1626;DHT22;806;48.770;9.156;2023-07-13T16:11:15;27.20;1.00
1626;DHT22;806;48.770;9.156;2023-07-13T16:13:45;27.10;1.00
1626;DHT22;806;48.770;9.156;2023-07-13T16:16:13;27.10;1.00
1626;DHT22;806;48.770;9.156;2023-07-13T16:18:40;27.20;1.00
1626;DHT22;806;48.770;9.156;2023-07-13T16:21:11;27.30;1.00
1626;DHT22;806;48.770;9.156;2023-07-13T16:23:39;27.30;1.00
1626;DHT22;806;48.770;9.156;2023-07-13T16:26:25;27.10;1.00
1626;DHT22;806;48.770;9.156;2023-07-13T16:28:54;27.00;1.00
1626;DHT22;806;48.770;9.156;2023-07-13T16:31:35;27.10;1.00
1626;DHT22;806;48.770;9.156;2023-07-13T16:34:02;27.10;1.00
1626;DHT22;806;48.770;9.156;2023-07-13T16:36:29;27.10;1.00
1626;DHT22;806;48.770;9.156;2023-07-13T16:38:57;27.10;1.00
1626;DHT22;806;48.770;9.156;2023-07-13T16:41:24;27.10;1.00
1626;DHT22;806;48.770;9.156;2023-07-13T16:43:51;26.90;1.00
1626;DHT22;806;48.770;9.156;2023-07-13T16:46:21;26.70;1.00
1626;DHT22;806;48.770;9.156;2023-07-13T16:48:49;26.70;1.00
1626;DHT22;806;48.770;9.156;2023-07-13T16:51:16;26.60;1.00